Pagina principale
METAR-TAF:

METAR-TAF

Aeroporti :

Tarvisio, Italia

latitudine: 46-30N, longitudine: 013-35E, altezza: 777 m

Osservazione

Il bollettino è stato emesso 1 ora e 9 minuti fa, alle 17:55 UTC
Vento 4 kt da nord-ovest
Temperature 11°C
Umidità 87%
Pressione 1005 hPa
Visibilità 10 km o più
Nuvoloso ad un'altezza di 2000 ft

METAR: LIVO 191755Z 31004KT 9999 BKN020 11/09 Q1005

Ora: 21:04 (19:04 UTC)


TAF: mancante

Osservazioni e previsioni meteorologiche di più di 4000 aeroporti (messaggi METAR e TAF).

Le stazioni disponibili sono rappresentate dai dischi gialli e rossi sulla carta.

Puntare il mouse per vedere il nome della stazione.

Clicca sopra per visualizzare le osservazioni e previsioni meteorologiche.

Per cambiare la mappa : fare clic sui pulsanti verdi con una croce nera per ingrandire, il pulsante verde con un trattino per diminuire, o sulla freccia verde per le mappe adiacenti.


METAR-TAF: